sensor_id;sensor_type;location;lat;lon;timestamp;pressure;altitude;pressure_sealevel;temperature;humidity
47130;BME280;64709;48.096;11.524;2022-11-20T00:00:53;94806.66;;;8.23;66.97
47130;BME280;64709;48.096;11.524;2022-11-20T00:03:19;94803.19;;;8.23;67.01
47130;BME280;64709;48.096;11.524;2022-11-20T00:05:44;94808.03;;;8.26;67.06
47130;BME280;64709;48.096;11.524;2022-11-20T00:08:10;94804.81;;;8.24;67.04
47130;BME280;64709;48.096;11.524;2022-11-20T00:10:39;94812.59;;;8.30;67.11
47130;BME280;64709;48.096;11.524;2022-11-20T00:13:05;94804.03;;;8.28;66.94
47130;BME280;64709;48.096;11.524;2022-11-20T00:15:30;94807.72;;;8.22;66.89
47130;BME280;64709;48.096;11.524;2022-11-20T00:17:56;94803.19;;;8.23;66.74
47130;BME280;64709;48.096;11.524;2022-11-20T00:20:21;94810.94;;;8.24;67.08
47130;BME280;64709;48.096;11.524;2022-11-20T00:22:46;94815.75;;;8.27;66.44
47130;BME280;64709;48.096;11.524;2022-11-20T00:25:12;94815.75;;;8.27;66.68
47130;BME280;64709;48.096;11.524;2022-11-20T00:27:37;94809.56;;;8.22;66.89
47130;BME280;64709;48.096;11.524;2022-11-20T00:30:04;94819.47;;;8.26;66.72
47130;BME280;64709;48.096;11.524;2022-11-20T00:32:30;94816.78;;;8.21;66.73
47130;BME280;64709;48.096;11.524;2022-11-20T00:34:55;94820.78;;;8.24;66.75
47130;BME280;64709;48.096;11.524;2022-11-20T00:37:20;94814.41;;;8.25;66.37
47130;BME280;64709;48.096;11.524;2022-11-20T00:39:46;94817.84;;;8.20;66.40
47130;BME280;64709;48.096;11.524;2022-11-20T00:42:11;94818.88;;;8.19;66.84
47130;BME280;64709;48.096;11.524;2022-11-20T00:44:36;94815.63;;;8.12;66.41
47130;BME280;64709;48.096;11.524;2022-11-20T00:47:01;94823.16;;;8.20;66.74
47130;BME280;64709;48.096;11.524;2022-11-20T00:49:27;94822.59;;;8.18;66.63
47130;BME280;64709;48.096;11.524;2022-11-20T00:51:52;94827.34;;;8.11;67.00
47130;BME280;64709;48.096;11.524;2022-11-20T00:54:17;94833.75;;;8.15;66.78
47130;BME280;64709;48.096;11.524;2022-11-20T00:56:43;94839.88;;;8.16;66.39
47130;BME280;64709;48.096;11.524;2022-11-20T00:59:09;94836.94;;;8.12;66.62
47130;BME280;64709;48.096;11.524;2022-11-20T01:01:35;94840.16;;;8.14;66.56
47130;BME280;64709;48.096;11.524;2022-11-20T01:04:01;94835.56;;;8.10;66.98
47130;BME280;64709;48.096;11.524;2022-11-20T01:06:29;94837.72;;;8.13;66.91
47130;BME280;64709;48.096;11.524;2022-11-20T01:08:57;94844.09;;;8.12;67.12
47130;BME280;64709;48.096;11.524;2022-11-20T01:11:25;94847.53;;;8.07;66.52
47130;BME280;64709;48.096;11.524;2022-11-20T01:13:52;94846.16;;;8.05;66.89
47130;BME280;64709;48.096;11.524;2022-11-20T01:16:23;94839.47;;;8.02;67.06
47130;BME280;64709;48.096;11.524;2022-11-20T01:18:51;94846.94;;;8.00;67.23
47130;BME280;64709;48.096;11.524;2022-11-20T01:21:20;94846.38;;;7.98;67.42
47130;BME280;64709;48.096;11.524;2022-11-20T01:23:47;94846.66;;;8.02;67.02
47130;BME280;64709;48.096;11.524;2022-11-20T01:26:15;94852.06;;;8.07;66.98
47130;BME280;64709;48.096;11.524;2022-11-20T01:28:41;94852.28;;;8.05;67.04
47130;BME280;64709;48.096;11.524;2022-11-20T01:31:12;94855.44;;;8.02;67.32
47130;BME280;64709;48.096;11.524;2022-11-20T01:33:39;94854.41;;;8.03;67.25
47130;BME280;64709;48.096;11.524;2022-11-20T01:36:06;94857.31;;;8.02;66.86
47130;BME280;64709;48.096;11.524;2022-11-20T01:38:32;94846.34;;;7.93;67.30
47130;BME280;64709;48.096;11.524;2022-11-20T01:40:57;94853.78;;;7.96;67.13
47130;BME280;64709;48.096;11.524;2022-11-20T01:43:23;94856.47;;;7.96;66.98
47130;BME280;64709;48.096;11.524;2022-11-20T01:48:51;94863.16;;;7.99;67.07
47130;BME280;64709;48.096;11.524;2022-11-20T01:51:21;94857.63;;;8.05;66.98
47130;BME280;64709;48.096;11.524;2022-11-20T01:53:48;94864.00;;;8.04;67.09
47130;BME280;64709;48.096;11.524;2022-11-20T01:56:15;94861.09;;;8.06;66.50
47130;BME280;64709;48.096;11.524;2022-11-20T01:58:45;94863.19;;;8.04;66.86
47130;BME280;64709;48.096;11.524;2022-11-20T02:01:13;94860.25;;;8.00;66.86
47130;BME280;64709;48.096;11.524;2022-11-20T02:03:39;94843.59;;;7.88;67.16
47130;BME280;64709;48.096;11.524;2022-11-20T02:06:11;94856.13;;;7.87;66.99
47130;BME280;64709;48.096;11.524;2022-11-20T02:08:39;94854.31;;;7.93;67.39
47130;BME280;64709;48.096;11.524;2022-11-20T02:11:04;94856.47;;;7.96;67.16
47130;BME280;64709;48.096;11.524;2022-11-20T02:13:30;94860.97;;;7.95;67.06
47130;BME280;64709;48.096;11.524;2022-11-20T02:16:28;94858.03;;;7.92;67.14
47130;BME280;64709;48.096;11.524;2022-11-20T02:18:55;94854.72;;;7.80;66.79
47130;BME280;64709;48.096;11.524;2022-11-20T02:21:30;94863.44;;;7.75;67.17
47130;BME280;64709;48.096;11.524;2022-11-20T02:24:07;94860.09;;;7.85;67.19
47130;BME280;64709;48.096;11.524;2022-11-20T02:29:30;94851.22;;;7.74;66.87
47130;BME280;64709;48.096;11.524;2022-11-20T02:31:58;94870.69;;;7.80;67.55
47130;BME280;64709;48.096;11.524;2022-11-20T02:34:25;94864.31;;;7.81;67.07
47130;BME280;64709;48.096;11.524;2022-11-20T02:36:51;94869.69;;;7.86;66.91
47130;BME280;64709;48.096;11.524;2022-11-20T02:39:19;94865.19;;;7.91;67.33
47130;BME280;64709;48.096;11.524;2022-11-20T02:41:45;94859.84;;;7.86;67.20
47130;BME280;64709;48.096;11.524;2022-11-20T02:44:10;94858.50;;;7.89;66.72
47130;BME280;64709;48.096;11.524;2022-11-20T02:46:36;94860.94;;;7.90;66.93
47130;BME280;64709;48.096;11.524;2022-11-20T02:49:02;94864.66;;;7.89;66.87
47130;BME280;64709;48.096;11.524;2022-11-20T02:51:28;94859.03;;;7.86;66.63
47130;BME280;64709;48.096;11.524;2022-11-20T02:53:53;94859.28;;;7.84;67.14
47130;BME280;64709;48.096;11.524;2022-11-20T02:56:18;94858.00;;;7.87;67.18
47130;BME280;64709;48.096;11.524;2022-11-20T02:58:44;94860.69;;;7.92;66.83
47130;BME280;64709;48.096;11.524;2022-11-20T03:01:09;94858.88;;;7.97;67.04
47130;BME280;64709;48.096;11.524;2022-11-20T03:03:34;94848.06;;;7.82;66.54
47130;BME280;64709;48.096;11.524;2022-11-20T03:06:00;94860.66;;;7.87;66.74
47130;BME280;64709;48.096;11.524;2022-11-20T03:08:25;94855.38;;;7.92;66.57
47130;BME280;64709;48.096;11.524;2022-11-20T03:10:51;94850.53;;;7.89;66.44
47130;BME280;64709;48.096;11.524;2022-11-20T03:13:16;94848.75;;;7.94;66.56
47130;BME280;64709;48.096;11.524;2022-11-20T03:15:42;94849.81;;;7.93;66.76
47130;BME280;64709;48.096;11.524;2022-11-20T03:18:07;94857.31;;;8.02;66.50
47130;BME280;64709;48.096;11.524;2022-11-20T03:20:33;94849.59;;;8.00;66.58
47130;BME280;64709;48.096;11.524;2022-11-20T03:22:59;94853.28;;;7.94;66.15
47130;BME280;64709;48.096;11.524;2022-11-20T03:25:24;94849.53;;;7.95;65.99
47130;BME280;64709;48.096;11.524;2022-11-20T03:27:50;94848.47;;;7.96;66.03
47130;BME280;64709;48.096;11.524;2022-11-20T03:30:15;94845.56;;;7.97;66.23
47130;BME280;64709;48.096;11.524;2022-11-20T03:32:41;94837.59;;;7.97;66.00
47130;BME280;64709;48.096;11.524;2022-11-20T03:35:06;94845.81;;;7.96;65.82
47130;BME280;64709;48.096;11.524;2022-11-20T03:37:32;94848.78;;;8.00;65.82
47130;BME280;64709;48.096;11.524;2022-11-20T03:39:57;94853.88;;;8.01;65.86
47130;BME280;64709;48.096;11.524;2022-11-20T03:42:22;94846.09;;;7.94;65.36
47130;BME280;64709;48.096;11.524;2022-11-20T03:45:07;94841.25;;;7.91;65.53
47130;BME280;64709;48.096;11.524;2022-11-20T03:47:32;94853.50;;;7.92;65.32
47130;BME280;64709;48.096;11.524;2022-11-20T03:49:58;94849.25;;;7.91;65.36
47130;BME280;64709;48.096;11.524;2022-11-20T03:52:23;94838.81;;;7.85;65.21
47130;BME280;64709;48.096;11.524;2022-11-20T03:54:48;94854.25;;;7.88;65.86
47130;BME280;64709;48.096;11.524;2022-11-20T03:57:13;94848.88;;;7.83;65.78
47130;BME280;64709;48.096;11.524;2022-11-20T03:59:39;94854.53;;;7.86;65.80
47130;BME280;64709;48.096;11.524;2022-11-20T04:02:04;94863.59;;;7.90;65.92
47130;BME280;64709;48.096;11.524;2022-11-20T04:04:29;94853.72;;;7.86;65.52
47130;BME280;64709;48.096;11.524;2022-11-20T04:06:54;94849.94;;;7.82;65.49
47130;BME280;64709;48.096;11.524;2022-11-20T04:09:20;94852.91;;;7.85;65.50
47130;BME280;64709;48.096;11.524;2022-11-20T04:11:45;94848.69;;;7.89;65.30
47130;BME280;64709;48.096;11.524;2022-11-20T04:14:15;94852.66;;;7.87;64.84
47130;BME280;64709;48.096;11.524;2022-11-20T04:16:40;94854.53;;;7.86;65.30
47130;BME280;64709;48.096;11.524;2022-11-20T04:19:10;94850.50;;;7.84;65.01
47130;BME280;64709;48.096;11.524;2022-11-20T04:21:35;94847.84;;;7.84;65.29
47130;BME280;64709;48.096;11.524;2022-11-20T04:24:01;94850.00;;;7.87;65.22
47130;BME280;64709;48.096;11.524;2022-11-20T04:26:27;94856.41;;;7.91;65.02
47130;BME280;64709;48.096;11.524;2022-11-20T04:28:53;94854.56;;;7.91;64.94
47130;BME280;64709;48.096;11.524;2022-11-20T04:31:24;94844.69;;;7.87;65.13
47130;BME280;64709;48.096;11.524;2022-11-20T04:33:50;94855.31;;;7.87;65.04
47130;BME280;64709;48.096;11.524;2022-11-20T04:36:23;94851.91;;;7.91;65.23
47130;BME280;64709;48.096;11.524;2022-11-20T04:38:54;94851.41;;;7.94;65.31
47130;BME280;64709;48.096;11.524;2022-11-20T04:41:21;94855.41;;;7.97;65.39
47130;BME280;64709;48.096;11.524;2022-11-20T04:43:51;94849.53;;;7.95;64.97
47130;BME280;64709;48.096;11.524;2022-11-20T04:46:18;94856.91;;;7.88;65.13
47130;BME280;64709;48.096;11.524;2022-11-20T04:48:44;94841.09;;;7.76;64.84
47130;BME280;64709;48.096;11.524;2022-11-20T04:51:09;94855.06;;;7.88;65.07
47130;BME280;64709;48.096;11.524;2022-11-20T04:53:35;94862.22;;;7.88;64.87
47130;BME280;64709;48.096;11.524;2022-11-20T04:56:02;94857.91;;;7.82;65.10
47130;BME280;64709;48.096;11.524;2022-11-20T04:58:28;94857.91;;;7.82;65.16
47130;BME280;64709;48.096;11.524;2022-11-20T05:00:53;94863.00;;;7.83;65.14
47130;BME280;64709;48.096;11.524;2022-11-20T05:03:19;94857.91;;;7.82;65.38
47130;BME280;64709;48.096;11.524;2022-11-20T05:05:44;94858.72;;;7.82;65.43
47130;BME280;64709;48.096;11.524;2022-11-20T05:08:09;94854.41;;;7.76;65.58
47130;BME280;64709;48.096;11.524;2022-11-20T05:10:35;94860.47;;;7.72;65.71
47130;BME280;64709;48.096;11.524;2022-11-20T05:13:00;94850.34;;;7.69;65.75
47130;BME280;64709;48.096;11.524;2022-11-20T05:15:25;94856.47;;;7.69;65.31
47130;BME280;64709;48.096;11.524;2022-11-20T05:17:51;94858.06;;;7.70;65.87
47130;BME280;64709;48.096;11.524;2022-11-20T05:20:18;94858.31;;;7.69;65.22
47130;BME280;64709;48.096;11.524;2022-11-20T05:22:44;94854.59;;;7.70;65.80
47130;BME280;64709;48.096;11.524;2022-11-20T05:25:10;94860.78;;;7.75;65.82
47130;BME280;64709;48.096;11.524;2022-11-20T05:27:36;94861.09;;;7.79;65.37
47130;BME280;64709;48.096;11.524;2022-11-20T05:30:03;94860.84;;;7.80;65.05
47130;BME280;64709;48.096;11.524;2022-11-20T05:32:28;94854.44;;;7.81;65.56
47130;BME280;64709;48.096;11.524;2022-11-20T05:34:54;94865.66;;;7.83;65.29
47130;BME280;64709;48.096;11.524;2022-11-20T05:37:19;94854.72;;;7.80;65.40
47130;BME280;64709;48.096;11.524;2022-11-20T05:39:44;94866.41;;;7.79;65.52
47130;BME280;64709;48.096;11.524;2022-11-20T05:42:10;94862.09;;;7.73;64.82
47130;BME280;64709;48.096;11.524;2022-11-20T05:44:53;94868.69;;;7.70;65.13
47130;BME280;64709;48.096;11.524;2022-11-20T05:47:19;94873.78;;;7.72;65.41
47130;BME280;64709;48.096;11.524;2022-11-20T05:49:44;94870.75;;;7.63;65.72
47130;BME280;64709;48.096;11.524;2022-11-20T05:52:09;94870.28;;;7.66;65.46
47130;BME280;64709;48.096;11.524;2022-11-20T05:54:35;94875.59;;;7.66;65.36
47130;BME280;64709;48.096;11.524;2022-11-20T05:57:00;94862.03;;;7.68;65.62
47130;BME280;64709;48.096;11.524;2022-11-20T05:59:25;94865.47;;;7.68;65.29
47130;BME280;64709;48.096;11.524;2022-11-20T06:01:51;94874.25;;;7.69;65.33
47130;BME280;64709;48.096;11.524;2022-11-20T06:04:16;94871.56;;;7.64;65.06
47130;BME280;64709;48.096;11.524;2022-11-20T06:06:41;94875.78;;;7.60;65.07
47130;BME280;64709;48.096;11.524;2022-11-20T06:09:07;94870.69;;;7.58;65.57
47130;BME280;64709;48.096;11.524;2022-11-20T06:11:32;94872.31;;;7.59;65.15
47130;BME280;64709;48.096;11.524;2022-11-20T06:13:57;94863.72;;;7.52;65.60
47130;BME280;64709;48.096;11.524;2022-11-20T06:16:23;94867.91;;;7.48;64.88
47130;BME280;64709;48.096;11.524;2022-11-20T06:18:48;94860.13;;;7.41;65.29
47130;BME280;64709;48.096;11.524;2022-11-20T06:21:18;94865.19;;;7.43;64.72
47130;BME280;64709;48.096;11.524;2022-11-20T06:23:44;94871.84;;;7.40;65.02
47130;BME280;64709;48.096;11.524;2022-11-20T06:26:15;94872.31;;;7.37;64.55
47130;BME280;64709;48.096;11.524;2022-11-20T06:28:41;94868.38;;;7.40;64.40
47130;BME280;64709;48.096;11.524;2022-11-20T06:31:07;94870.53;;;7.43;64.31
47130;BME280;64709;48.096;11.524;2022-11-20T06:33:34;94878.44;;;7.38;63.63
47130;BME280;64709;48.096;11.524;2022-11-20T06:36:00;94875.22;;;7.36;64.24
47130;BME280;64709;48.096;11.524;2022-11-20T06:38:27;94881.28;;;7.31;63.48
47130;BME280;64709;48.096;11.524;2022-11-20T06:40:53;94883.72;;;7.33;63.59
47130;BME280;64709;48.096;11.524;2022-11-20T06:43:19;94880.25;;;7.32;63.87
47130;BME280;64709;48.096;11.524;2022-11-20T06:45:44;94885.78;;;7.31;63.67
47130;BME280;64709;48.096;11.524;2022-11-20T06:48:09;94885.84;;;7.36;63.69
47130;BME280;64709;48.096;11.524;2022-11-20T06:50:38;94895.06;;;7.28;62.80
47130;BME280;64709;48.096;11.524;2022-11-20T06:53:04;94892.97;;;7.30;63.36
47130;BME280;64709;48.096;11.524;2022-11-20T06:55:31;94902.78;;;7.30;63.34
47130;BME280;64709;48.096;11.524;2022-11-20T06:57:56;94907.88;;;7.31;62.65
47130;BME280;64709;48.096;11.524;2022-11-20T07:00:22;94903.78;;;7.24;62.98
47130;BME280;64709;48.096;11.524;2022-11-20T07:02:47;94911.91;;;7.34;63.20
47130;BME280;64709;48.096;11.524;2022-11-20T07:05:13;94913.81;;;7.38;62.98
47130;BME280;64709;48.096;11.524;2022-11-20T07:07:38;94920.72;;;7.39;63.72
47130;BME280;64709;48.096;11.524;2022-11-20T07:10:04;94911.44;;;7.42;63.72
47130;BME280;64709;48.096;11.524;2022-11-20T07:12:30;94911.72;;;7.40;63.83
47130;BME280;64709;48.096;11.524;2022-11-20T07:14:55;94911.38;;;7.37;63.94
47130;BME280;64709;48.096;11.524;2022-11-20T07:17:21;94914.09;;;7.42;64.16
47130;BME280;64709;48.096;11.524;2022-11-20T07:19:46;94912.44;;;7.36;64.37
47130;BME280;64709;48.096;11.524;2022-11-20T07:22:12;94918.06;;;7.39;64.95
47130;BME280;64709;48.096;11.524;2022-11-20T07:24:38;94920.09;;;7.32;64.77
47130;BME280;64709;48.096;11.524;2022-11-20T07:27:04;94916.88;;;7.30;65.34
47130;BME280;64709;48.096;11.524;2022-11-20T07:29:29;94926.06;;;7.39;65.37
47130;BME280;64709;48.096;11.524;2022-11-20T07:31:54;94925.53;;;7.42;65.09
47130;BME280;64709;48.096;11.524;2022-11-20T07:34:21;94929.00;;;7.43;65.00
47130;BME280;64709;48.096;11.524;2022-11-20T07:36:46;94930.38;;;7.45;64.83
47130;BME280;64709;48.096;11.524;2022-11-20T07:39:12;94923.13;;;7.41;64.67
47130;BME280;64709;48.096;11.524;2022-11-20T07:41:37;94913.88;;;7.43;64.31
47130;BME280;64709;48.096;11.524;2022-11-20T07:44:02;94925.06;;;7.45;64.32
47130;BME280;64709;48.096;11.524;2022-11-20T07:46:28;94907.25;;;7.46;63.89
47130;BME280;64709;48.096;11.524;2022-11-20T07:48:53;94918.13;;;7.44;63.82
47130;BME280;64709;48.096;11.524;2022-11-20T07:51:18;94919.56;;;7.52;64.46
47130;BME280;64709;48.096;11.524;2022-11-20T07:53:44;94918.44;;;7.48;63.63
47130;BME280;64709;48.096;11.524;2022-11-20T07:56:09;94910.22;;;7.49;63.48
47130;BME280;64709;48.096;11.524;2022-11-20T07:58:34;94916.03;;;7.46;63.68
47130;BME280;64709;48.096;11.524;2022-11-20T08:01:05;94914.19;;;7.47;63.80
47130;BME280;64709;48.096;11.524;2022-11-20T08:03:30;94919.00;;;7.50;64.07
47130;BME280;64709;48.096;11.524;2022-11-20T08:06:01;94919.78;;;7.50;63.35
47130;BME280;64709;48.096;11.524;2022-11-20T08:08:27;94920.38;;;7.52;63.32
47130;BME280;64709;48.096;11.524;2022-11-20T08:10:53;94926.78;;;7.56;63.05
47130;BME280;64709;48.096;11.524;2022-11-20T08:13:38;94923.94;;;7.63;63.14
47130;BME280;64709;48.096;11.524;2022-11-20T08:16:22;94917.09;;;7.67;63.29
47130;BME280;64709;48.096;11.524;2022-11-20T08:18:47;94915.28;;;7.73;62.98
47130;BME280;64709;48.096;11.524;2022-11-20T08:21:13;94917.94;;;7.73;62.53
47130;BME280;64709;48.096;11.524;2022-11-20T08:23:38;94914.53;;;7.77;62.73
47130;BME280;64709;48.096;11.524;2022-11-20T08:26:03;94916.44;;;7.82;62.36
47130;BME280;64709;48.096;11.524;2022-11-20T08:28:29;94927.41;;;7.85;62.42
47130;BME280;64709;48.096;11.524;2022-11-20T08:30:59;94922.88;;;7.86;62.64
47130;BME280;64709;48.096;11.524;2022-11-20T08:33:25;94929.09;;;7.96;62.44
47130;BME280;64709;48.096;11.524;2022-11-20T08:35:50;94934.75;;;8.00;62.38
47130;BME280;64709;48.096;11.524;2022-11-20T08:38:15;94938.00;;;8.07;61.85
47130;BME280;64709;48.096;11.524;2022-11-20T08:40:41;94921.63;;;7.93;61.44
47130;BME280;64709;48.096;11.524;2022-11-20T08:43:06;94929.09;;;7.96;61.77
47130;BME280;64709;48.096;11.524;2022-11-20T08:45:31;94922.28;;;8.06;61.61
47130;BME280;64709;48.096;11.524;2022-11-20T08:48:00;94924.38;;;8.04;61.42
47130;BME280;64709;48.096;11.524;2022-11-20T08:50:26;94919.38;;;8.07;61.80
47130;BME280;64709;48.096;11.524;2022-11-20T08:52:51;94922.34;;;8.11;61.40
47130;BME280;64709;48.096;11.524;2022-11-20T08:55:16;94922.66;;;8.14;61.53
47130;BME280;64709;48.096;11.524;2022-11-20T08:57:41;94918.66;;;8.17;61.03
47130;BME280;64709;48.096;11.524;2022-11-20T09:00:07;94914.94;;;8.18;60.86
47130;BME280;64709;48.096;11.524;2022-11-20T09:02:33;94915.00;;;8.23;60.89
47130;BME280;64709;48.096;11.524;2022-11-20T09:04:59;94911.59;;;8.27;61.01
47130;BME280;64709;48.096;11.524;2022-11-20T09:07:24;94917.03;;;8.38;60.46
47130;BME280;64709;48.096;11.524;2022-11-20T09:09:49;94920.75;;;8.37;59.78
47130;BME280;64709;48.096;11.524;2022-11-20T09:12:15;94913.06;;;8.40;59.99
47130;BME280;64709;48.096;11.524;2022-11-20T09:14:40;94916.22;;;8.37;59.01
47130;BME280;64709;48.096;11.524;2022-11-20T09:17:05;94914.63;;;8.36;60.58
47130;BME280;64709;48.096;11.524;2022-11-20T09:19:33;94920.25;;;8.40;60.00
47130;BME280;64709;48.096;11.524;2022-11-20T09:21:58;94926.06;;;8.37;59.39
47130;BME280;64709;48.096;11.524;2022-11-20T09:24:25;94913.59;;;8.42;59.67
47130;BME280;64709;48.096;11.524;2022-11-20T09:26:51;94913.69;;;8.52;59.08
47130;BME280;64709;48.096;11.524;2022-11-20T09:29:16;94910.25;;;8.57;59.18
47130;BME280;64709;48.096;11.524;2022-11-20T09:31:41;94913.31;;;8.70;59.33
47130;BME280;64709;48.096;11.524;2022-11-20T09:34:07;94902.97;;;8.74;58.87
47130;BME280;64709;48.096;11.524;2022-11-20T09:36:32;94916.88;;;8.81;58.08
47130;BME280;64709;48.096;11.524;2022-11-20T09:38:57;94904.84;;;8.79;58.15
47130;BME280;64709;48.096;11.524;2022-11-20T09:46:54;94910.66;;;8.75;57.79
47130;BME280;64709;48.096;11.524;2022-11-20T09:50:10;94910.19;;;8.84;58.16
47130;BME280;64709;48.096;11.524;2022-11-20T09:52:56;94892.75;;;9.03;58.61
47130;BME280;64709;48.096;11.524;2022-11-20T09:55:18;94895.28;;;9.30;56.96
47130;BME280;64709;48.096;11.524;2022-11-20T09:57:46;94892.94;;;9.38;55.72
47130;BME280;64709;48.096;11.524;2022-11-20T10:00:14;94892.69;;;9.45;55.66
47130;BME280;64709;48.096;11.524;2022-11-20T10:07:53;94881.72;;;10.14;53.72
47130;BME280;64709;48.096;11.524;2022-11-20T10:10:31;94877.50;;;10.43;56.00
47130;BME280;64709;48.096;11.524;2022-11-20T10:22:02;94879.63;;;10.97;52.71
47130;BME280;64709;48.096;11.524;2022-11-20T10:24:51;94882.25;;;11.22;53.18
47130;BME280;64709;48.096;11.524;2022-11-20T10:27:37;94879.00;;;11.35;52.13
47130;BME280;64709;48.096;11.524;2022-11-20T10:30:11;94876.56;;;11.39;51.20
47130;BME280;64709;48.096;11.524;2022-11-20T10:32:43;94884.38;;;11.30;51.97
47130;BME280;64709;48.096;11.524;2022-11-20T10:35:25;94889.16;;;11.33;52.10
47130;BME280;64709;48.096;11.524;2022-11-20T10:38:05;94908.38;;;11.45;53.04
47130;BME280;64709;48.096;11.524;2022-11-20T10:40:34;94875.44;;;11.55;50.94
47130;BME280;64709;48.096;11.524;2022-11-20T10:43:12;94880.63;;;11.31;51.09
47130;BME280;64709;48.096;11.524;2022-11-20T10:45:50;94874.53;;;11.00;50.79
47130;BME280;64709;48.096;11.524;2022-11-20T10:48:26;94876.38;;;11.00;52.59
47130;BME280;64709;48.096;11.524;2022-11-20T10:53:58;94906.34;;;10.82;51.29
47130;BME280;64709;48.096;11.524;2022-11-20T10:56:41;94883.63;;;10.59;52.25
47130;BME280;64709;48.096;11.524;2022-11-20T10:59:46;94877.50;;;10.43;51.75
47130;BME280;64709;48.096;11.524;2022-11-20T11:04:52;94877.75;;;10.47;52.22
47130;BME280;64709;48.096;11.524;2022-11-20T11:07:29;94871.59;;;10.21;52.14
47130;BME280;64709;48.096;11.524;2022-11-20T11:09:56;94870.47;;;10.12;53.30
47130;BME280;64709;48.096;11.524;2022-11-20T11:12:25;94863.78;;;9.99;53.43
47130;BME280;64709;48.096;11.524;2022-11-20T11:14:53;94872.06;;;9.98;54.60
47130;BME280;64709;48.096;11.524;2022-11-20T11:17:33;94861.63;;;9.86;54.70
47130;BME280;64709;48.096;11.524;2022-11-20T11:22:47;94873.41;;;10.05;54.31
47130;BME280;64709;48.096;11.524;2022-11-20T11:25:26;94862.47;;;10.07;54.80
47130;BME280;64709;48.096;11.524;2022-11-20T11:27:53;94863.78;;;10.04;54.53
47130;BME280;64709;48.096;11.524;2022-11-20T11:30:21;94856.06;;;10.03;55.01
47130;BME280;64709;48.096;11.524;2022-11-20T11:32:47;94847.53;;;10.01;55.15
47130;BME280;64709;48.096;11.524;2022-11-20T11:35:25;94840.28;;;9.91;54.57
47130;BME280;64709;48.096;11.524;2022-11-20T11:37:54;94837.63;;;9.91;54.48
47130;BME280;64709;48.096;11.524;2022-11-20T11:40:27;94852.06;;;10.05;54.81
47130;BME280;64709;48.096;11.524;2022-11-20T11:43:01;94841.97;;;10.27;54.74
47130;BME280;64709;48.096;11.524;2022-11-20T11:45:28;94845.44;;;10.23;53.65
47130;BME280;64709;48.096;11.524;2022-11-20T11:47:56;94850.50;;;10.24;53.82
47130;BME280;64709;48.096;11.524;2022-11-20T11:50:27;94848.63;;;10.25;53.61
47130;BME280;64709;48.096;11.524;2022-11-20T11:52:58;94851.03;;;10.26;53.28
47130;BME280;64709;48.096;11.524;2022-11-20T11:55:41;94835.81;;;10.27;53.13
47130;BME280;64709;48.096;11.524;2022-11-20T12:06:43;94854.53;;;10.52;53.79
47130;BME280;64709;48.096;11.524;2022-11-20T12:09:10;94850.25;;;10.56;54.18
47130;BME280;64709;48.096;11.524;2022-11-20T12:12:08;94843.31;;;10.45;54.57
47130;BME280;64709;48.096;11.524;2022-11-20T12:14:37;94855.59;;;10.26;54.78
47130;BME280;64709;48.096;11.524;2022-11-20T12:17:04;94858.22;;;10.16;56.02
47130;BME280;64709;48.096;11.524;2022-11-20T12:19:31;94849.94;;;10.02;56.87
47130;BME280;64709;48.096;11.524;2022-11-20T12:25:30;94850.41;;;9.79;58.55
47130;BME280;64709;48.096;11.524;2022-11-20T12:30:33;94850.38;;;9.69;59.11
47130;BME280;64709;48.096;11.524;2022-11-20T12:34:03;94853.06;;;9.69;59.33
47130;BME280;64709;48.096;11.524;2022-11-20T12:36:19;94849.28;;;9.60;59.60
47130;BME280;64709;48.096;11.524;2022-11-20T12:45:06;94849.69;;;9.26;61.36
47130;BME280;64709;48.096;11.524;2022-11-20T12:50:20;94838.47;;;9.19;61.93
47130;BME280;64709;48.096;11.524;2022-11-20T13:01:25;94832.31;;;9.19;61.73
47130;BME280;64709;48.096;11.524;2022-11-20T13:04:39;94839.78;;;9.17;61.66
47130;BME280;64709;48.096;11.524;2022-11-20T13:07:11;94838.66;;;9.02;61.93
47130;BME280;64709;48.096;11.524;2022-11-20T13:09:42;94842.31;;;8.96;62.34
47130;BME280;64709;48.096;11.524;2022-11-20T13:15:07;94841.50;;;8.91;62.64
47130;BME280;64709;48.096;11.524;2022-11-20T13:17:47;94841.28;;;8.97;63.07
47130;BME280;64709;48.096;11.524;2022-11-20T13:20:17;94846.34;;;8.99;63.47
47130;BME280;64709;48.096;11.524;2022-11-20T13:25:30;94829.47;;;8.83;64.24
47130;BME280;64709;48.096;11.524;2022-11-20T13:27:58;94823.88;;;8.80;63.88
47130;BME280;64709;48.096;11.524;2022-11-20T13:30:25;94822.75;;;8.75;64.78
47130;BME280;64709;48.096;11.524;2022-11-20T13:33:30;94810.25;;;8.76;64.48
47130;BME280;64709;48.096;11.524;2022-11-20T13:36:00;94815.56;;;8.76;64.53
47130;BME280;64709;48.096;11.524;2022-11-20T13:38:27;94810.25;;;8.76;64.35
47130;BME280;64709;48.096;11.524;2022-11-20T13:40:56;94811.25;;;8.65;64.10
47130;BME280;64709;48.096;11.524;2022-11-20T13:43:38;94809.16;;;8.67;64.23
47130;BME280;64709;48.096;11.524;2022-11-20T13:46:08;94805.69;;;8.66;64.22
47130;BME280;64709;48.096;11.524;2022-11-20T13:48:45;94802.19;;;8.61;64.38
47130;BME280;64709;48.096;11.524;2022-11-20T13:51:15;94805.94;;;8.70;64.04
47130;BME280;64709;48.096;11.524;2022-11-20T13:54:20;94799.25;;;8.62;64.06
47130;BME280;64709;48.096;11.524;2022-11-20T14:02:14;94795.28;;;8.65;63.09
47130;BME280;64709;48.096;11.524;2022-11-20T14:04:45;94804.06;;;8.65;63.00
47130;BME280;64709;48.096;11.524;2022-11-20T14:07:12;94797.44;;;8.68;63.40
47130;BME280;64709;48.096;11.524;2022-11-20T14:09:38;94796.41;;;8.74;63.26
47130;BME280;64709;48.096;11.524;2022-11-20T14:12:12;94800.91;;;8.73;62.90
47130;BME280;64709;48.096;11.524;2022-11-20T14:14:50;94807.09;;;8.84;63.52
47130;BME280;64709;48.096;11.524;2022-11-20T14:19:54;94810.63;;;8.95;62.84
47130;BME280;64709;48.096;11.524;2022-11-20T14:22:24;94809.81;;;8.94;62.33
47130;BME280;64709;48.096;11.524;2022-11-20T14:27:40;94806.88;;;8.91;62.23
47130;BME280;64709;48.096;11.524;2022-11-20T14:30:12;94799.34;;;8.83;61.88